Time;durP1;ratioP1;P1;durP2;ratioP2;P2;SDS_P1;SDS_P2;PMS_P1;PMS_P2;Temp;Humidity;BMP_temperature;BMP_pressure;BME280_temperature;BME280_humidity;BME280_pressure;Samples;Min_cycle;Max_cycle;Signal;HPM_P1;HPM_P2
2023/03/17 00:00:19;;;;;;;8.88;4.10;;;;;;;8.63;91.35;100754.56;6292161;22;20833;-70
2023/03/17 00:02:48;;;;;;;7.53;3.63;;;;;;;8.53;91.58;100759.56;6291804;22;20023;-67
2023/03/17 00:05:16;;;;;;;6.95;4.10;;;;;;;8.49;92.23;100768.66;6291819;22;20015;-67
2023/03/17 00:07:42;;;;;;;6.38;4.00;;;;;;;8.54;91.69;100764.81;6293708;22;20015;-69
2023/03/17 00:10:20;;;;;;;8.25;3.58;;;;;;;8.60;92.35;100771.56;6293964;22;20047;-69
2023/03/17 00:12:48;;;;;;;11.75;4.00;;;;;;;8.60;92.48;100770.72;6294339;22;20114;-69
2023/03/17 00:15:13;;;;;;;5.47;3.70;;;;;;;8.51;92.36;100780.06;6266910;22;20029;-69
2023/03/17 00:17:40;;;;;;;7.35;4.60;;;;;;;8.57;92.31;100758.44;6293986;22;20475;-69
2023/03/17 00:20:09;;;;;;;6.32;4.65;;;;;;;8.49;92.94;100752.72;6294438;22;20019;-69
2023/03/17 00:22:35;;;;;;;6.63;4.00;;;;;;;8.44;93.10;100749.47;6293983;22;20059;-68
2023/03/17 00:25:00;;;;;;;7.53;4.00;;;;;;;8.23;94.84;100765.63;6295578;22;20019;-67
2023/03/17 00:27:27;;;;;;;5.88;3.45;;;;;;;8.33;94.55;100776.56;6294973;22;20018;-68
2023/03/17 00:29:52;;;;;;;8.38;5.25;;;;;;;8.31;94.10;100779.31;6266442;22;20015;-68
2023/03/17 00:32:20;;;;;;;8.27;4.63;;;;;;;8.11;95.87;100778.69;6294104;22;20049;-69
2023/03/17 00:34:50;;;;;;;6.13;3.38;;;;;;;8.13;95.85;100767.03;6292801;22;20094;-68
2023/03/17 00:37:16;;;;;;;8.32;4.32;;;;;;;8.07;95.53;100770.03;6264244;22;20019;-69
2023/03/17 00:39:41;;;;;;;8.95;4.00;;;;;;;8.17;94.93;100763.28;6292685;22;20495;-69
2023/03/17 00:42:07;;;;;;;5.80;3.60;;;;;;;8.14;94.78;100760.81;6293740;22;20015;-67
2023/03/17 00:44:33;;;;;;;12.82;3.80;;;;;;;8.15;95.84;100746.59;6293292;22;20041;-68
2023/03/17 00:46:59;;;;;;;5.25;3.42;;;;;;;8.01;96.16;100746.47;6265113;22;20620;-67
2023/03/17 00:49:26;;;;;;;8.45;4.20;;;;;;;8.14;95.92;100741.34;6293408;22;20015;-69
2023/03/17 00:51:52;;;;;;;9.00;3.80;;;;;;;8.11;95.61;100742.38;6293425;22;20018;-68
2023/03/17 00:54:19;;;;;;;9.98;3.40;;;;;;;8.07;96.47;100740.81;6294446;22;20011;-66
2023/03/17 00:56:46;;;;;;;7.40;3.85;;;;;;;8.13;95.88;100739.63;6266446;22;20019;-69
2023/03/17 00:59:47;;;;;;;6.95;3.72;;;;;;;7.97;96.54;100743.13;6266919;22;20118;-70
2023/03/17 01:02:13;;;;;;;8.23;3.50;;;;;;;8.16;95.50;100747.44;6169192;23;20024;-68
2023/03/17 01:04:40;;;;;;;5.78;3.38;;;;;;;8.06;95.93;100739.09;6266951;22;20512;-68
2023/03/17 01:07:06;;;;;;;7.68;3.53;;;;;;;8.25;94.21;100738.97;6294086;22;20023;-69
2023/03/17 01:09:32;;;;;;;11.48;4.07;;;;;;;8.15;95.57;100737.75;6267510;22;20019;-68
2023/03/17 01:11:59;;;;;;;6.10;3.63;;;;;;;8.20;94.26;100736.56;6294710;22;20078;-69
2023/03/17 01:14:25;;;;;;;5.90;3.90;;;;;;;8.12;95.73;100733.44;6292410;22;20055;-74
2023/03/17 01:16:51;;;;;;;9.00;4.32;;;;;;;8.10;94.48;100726.53;6265153;22;20097;-68
2023/03/17 01:19:17;;;;;;;6.47;3.83;;;;;;;8.03;95.42;100710.06;6264432;22;20019;-72
2023/03/17 01:21:44;;;;;;;5.88;3.30;;;;;;;7.94;96.06;100710.59;6291216;22;20090;-67
2023/03/17 01:24:10;;;;;;;10.85;4.28;;;;;;;7.96;96.06;100717.50;6291523;22;20011;-68
2023/03/17 01:26:36;;;;;;;7.68;3.55;;;;;;;7.91;97.11;100724.88;6238837;22;20757;-67
2023/03/17 01:29:03;;;;;;;8.45;3.55;;;;;;;7.97;95.67;100721.88;6264326;22;20022;-65
2023/03/17 01:31:29;;;;;;;8.13;3.95;;;;;;;7.98;96.30;100715.66;6264661;22;20406;-68
2023/03/17 01:33:54;;;;;;;8.02;4.32;;;;;;;7.95;96.46;100714.94;6292811;22;20026;-67
2023/03/17 01:36:20;;;;;;;7.13;3.30;;;;;;;7.83;97.24;100712.94;6239682;22;20015;-67
2023/03/17 01:38:49;;;;;;;6.65;3.78;;;;;;;7.75;98.12;100714.22;6264024;22;20026;-68
2023/03/17 01:41:18;;;;;;;8.00;4.00;;;;;;;7.90;96.91;100712.53;6263951;22;20019;-66
2023/03/17 01:43:43;;;;;;;8.48;3.33;;;;;;;7.85;97.87;100722.56;6291323;22;20039;-69
2023/03/17 01:46:21;;;;;;;7.97;3.60;;;;;;;7.83;97.47;100721.78;6290110;22;20026;-68
2023/03/17 01:49:13;;;;;;;6.18;3.58;;;;;;;7.73;97.26;100720.53;6291868;22;20410;-66
2023/03/17 01:52:03;;;;;;;4.78;3.40;;;;;;;7.78;97.41;100708.75;6264766;22;20781;-69
2023/03/17 01:54:44;;;;;;;8.77;4.20;;;;;;;7.76;97.63;100717.72;6292143;22;20058;-68
2023/03/17 01:57:16;;;;;;;6.65;3.17;;;;;;;7.74;98.74;100714.31;6239380;22;20154;-68
2023/03/17 01:59:48;;;;;;;5.00;3.58;;;;;;;7.66;98.92;100709.41;6263431;22;20057;-72
2023/03/17 02:02:18;;;;;;;4.82;3.20;;;;;;;7.77;98.53;100703.50;6292971;22;20453;-68
2023/03/17 02:04:44;;;;;;;4.93;2.85;;;;;;;7.71;98.29;100698.53;6293477;22;20102;-69
2023/03/17 02:07:11;;;;;;;5.88;3.05;;;;;;;7.74;98.12;100701.03;6292682;22;20153;-68
2023/03/17 02:09:40;;;;;;;5.30;3.47;;;;;;;7.67;99.23;100691.69;6265590;22;20026;-68
2023/03/17 02:12:06;;;;;;;7.13;3.40;;;;;;;7.64;100.00;100694.50;6293549;22;20011;-68
2023/03/17 02:14:32;;;;;;;5.38;3.40;;;;;;;7.86;97.57;100692.41;6293082;22;20015;-69
2023/03/17 02:16:58;;;;;;;6.60;3.05;;;;;;;7.81;97.37;100685.63;6265317;22;20074;-69
2023/03/17 02:19:24;;;;;;;6.82;3.40;;;;;;;7.85;97.95;100687.19;6293322;22;20016;-69
2023/03/17 02:21:52;;;;;;;7.72;3.08;;;;;;;7.86;96.90;100687.09;6293380;22;20011;-68
2023/03/17 02:24:30;;;;;;;6.55;2.88;;;;;;;7.85;96.83;100687.19;6293734;22;20049;-68
2023/03/17 02:27:02;;;;;;;6.03;3.63;;;;;;;7.77;97.06;100682.28;6265553;22;20841;-69
2023/03/17 02:29:27;;;;;;;6.00;2.90;;;;;;;7.76;96.80;100688.53;6292390;22;20521;-68
2023/03/17 02:31:53;;;;;;;7.20;3.30;;;;;;;7.84;96.22;100685.47;6292913;22;20019;-70
2023/03/17 02:34:21;;;;;;;6.63;3.10;;;;;;;7.86;95.64;100680.94;6264974;22;20050;-67
2023/03/17 02:36:46;;;;;;;7.50;3.78;;;;;;;7.59;97.32;100684.16;6293114;22;20018;-68
2023/03/17 02:39:14;;;;;;;5.68;2.92;;;;;;;7.52;97.69;100682.75;6265134;22;20019;-67
2023/03/17 02:41:39;;;;;;;4.75;3.20;;;;;;;7.68;97.58;100666.84;6293709;22;20042;-69
2023/03/17 02:44:05;;;;;;;5.47;3.28;;;;;;;7.62;97.70;100675.16;6265694;22;20011;-69
2023/03/17 02:46:30;;;;;;;6.45;3.67;;;;;;;7.64;97.69;100675.94;6293568;22;20046;-69
2023/03/17 02:48:59;;;;;;;4.25;2.78;;;;;;;7.63;97.92;100667.13;6294241;22;20137;-67
2023/03/17 02:51:25;;;;;;;3.35;2.63;;;;;;;7.50;97.16;100663.41;6293130;22;20053;-68
2023/03/17 02:53:51;;;;;;;5.05;3.13;;;;;;;7.57;98.11;100666.56;6293785;22;20019;-67
2023/03/17 02:56:16;;;;;;;6.10;3.22;;;;;;;7.53;98.47;100669.41;6293727;22;20030;-68
2023/03/17 02:58:42;;;;;;;9.02;3.97;;;;;;;7.51;98.12;100670.41;6293886;22;20018;-67
2023/03/17 03:01:08;;;;;;;6.47;3.50;;;;;;;7.41;99.51;100667.41;6293646;22;20015;-67
2023/03/17 03:03:34;;;;;;;6.55;2.88;;;;;;;7.53;98.51;100663.25;6293537;22;20011;-67
2023/03/17 03:05:59;;;;;;;7.95;3.10;;;;;;;7.69;97.47;100668.59;6294170;22;20022;-66
2023/03/17 03:08:25;;;;;;;9.35;3.75;;;;;;;7.73;97.46;100667.47;6293422;22;20026;-68
2023/03/17 03:10:51;;;;;;;6.57;2.83;;;;;;;7.64;97.37;100663.53;6294037;22;20073;-67
2023/03/17 03:13:17;;;;;;;7.55;3.53;;;;;;;7.71;96.81;100667.56;6294088;22;20019;-69
2023/03/17 03:15:42;;;;;;;4.72;2.80;;;;;;;7.73;96.66;100657.72;6293713;22;20095;-69
2023/03/17 03:18:08;;;;;;;12.80;3.38;;;;;;;7.74;97.00;100661.22;6293518;22;20015;-68
2023/03/17 03:20:35;;;;;;;4.00;2.63;;;;;;;7.69;98.20;100673.91;6265748;22;20097;-68
2023/03/17 03:23:00;;;;;;;7.75;2.70;;;;;;;7.73;96.72;100667.47;6293536;22;20015;-68
2023/03/17 03:25:25;;;;;;;5.85;2.70;;;;;;;7.81;97.55;100656.44;6293858;22;20097;-67
2023/03/17 03:27:51;;;;;;;6.35;3.47;;;;;;;7.73;97.34;100662.16;6293724;22;20026;-68
2023/03/17 03:30:17;;;;;;;5.05;2.72;;;;;;;7.66;97.63;100663.44;6294260;22;20018;-68
2023/03/17 03:32:42;;;;;;;13.35;3.25;;;;;;;7.75;97.66;100653.19;6293755;22;20011;-69
2023/03/17 03:35:09;;;;;;;6.93;3.20;;;;;;;7.81;97.15;100643.16;6293572;22;20011;-67
2023/03/17 03:37:35;;;;;;;4.95;3.15;;;;;;;7.84;96.96;100645.66;6294177;22;20093;-67
2023/03/17 03:40:00;;;;;;;13.18;5.28;;;;;;;7.85;97.83;100650.03;6293617;22;20015;-68
2023/03/17 03:42:26;;;;;;;5.82;3.33;;;;;;;7.92;95.96;100648.72;6295559;22;20035;-68
2023/03/17 03:44:51;;;;;;;5.93;3.08;;;;;;;7.90;96.03;100647.97;6295750;22;20047;-68
2023/03/17 03:47:17;;;;;;;4.25;3.13;;;;;;;7.90;96.60;100648.81;6296189;22;20011;-68
2023/03/17 03:49:42;;;;;;;6.43;3.25;;;;;;;7.74;98.80;100659.44;6295454;22;20093;-69
2023/03/17 03:52:08;;;;;;;5.43;2.80;;;;;;;7.83;97.95;100652.78;6267593;22;20018;-68
2023/03/17 03:54:33;;;;;;;5.70;2.95;;;;;;;7.66;97.62;100663.44;6295030;22;20015;-68
2023/03/17 03:56:59;;;;;;;7.65;3.00;;;;;;;7.84;97.40;100654.47;6295590;22;20035;-68
2023/03/17 03:59:24;;;;;;;6.05;3.20;;;;;;;7.76;98.55;100659.34;6295662;22;20030;-67
2023/03/17 04:01:50;;;;;;;8.90;3.88;;;;;;;7.65;97.47;100667.88;6295458;22;20015;-68
2023/03/17 04:04:15;;;;;;;5.20;3.20;;;;;;;7.74;98.55;100656.78;6267344;22;20058;-66
2023/03/17 04:06:41;;;;;;;7.93;3.35;;;;;;;7.77;97.76;100661.91;6295402;22;20019;-69
2023/03/17 04:09:08;;;;;;;5.28;3.42;;;;;;;7.64;98.17;100660.88;6295014;22;20011;-68
2023/03/17 04:11:33;;;;;;;3.63;3.20;;;;;;;7.70;98.72;100662.34;6295214;22;20014;-68
2023/03/17 04:13:59;;;;;;;5.95;3.35;;;;;;;7.65;98.08;100680.31;6295420;22;20011;-70
2023/03/17 04:16:25;;;;;;;5.53;3.42;;;;;;;7.63;99.30;100671.56;6295308;22;20023;-67
2023/03/17 04:18:50;;;;;;;6.10;3.38;;;;;;;7.56;100.00;100678.13;6295365;22;20086;-68
2023/03/17 04:21:17;;;;;;;5.57;3.63;;;;;;;7.66;100.00;100677.56;6295546;22;20011;-67
2023/03/17 04:23:44;;;;;;;8.07;3.72;;;;;;;7.49;100.00;100682.94;6295152;22;20514;-68
2023/03/17 04:26:10;;;;;;;6.72;3.97;;;;;;;7.48;100.00;100681.19;6295409;22;20072;-68
2023/03/17 04:28:36;;;;;;;6.82;3.47;;;;;;;7.40;100.00;100686.91;6294920;22;20019;-67
2023/03/17 04:31:02;;;;;;;8.95;4.10;;;;;;;7.20;100.00;100693.25;6294946;22;20018;-66
2023/03/17 04:33:27;;;;;;;6.88;3.63;;;;;;;6.97;100.00;100697.06;6295210;22;20015;-69
2023/03/17 04:35:53;;;;;;;7.30;3.75;;;;;;;7.06;100.00;100694.91;6295219;22;20019;-68
2023/03/17 04:38:18;;;;;;;6.03;3.72;;;;;;;6.81;100.00;100690.84;6295432;22;20015;-68
2023/03/17 04:40:44;;;;;;;7.70;3.97;;;;;;;6.89;100.00;100690.47;6295047;22;20026;-68
2023/03/17 04:43:09;;;;;;;7.97;4.15;;;;;;;6.97;100.00;100686.47;6295451;22;20030;-67
2023/03/17 04:45:36;;;;;;;10.95;3.92;;;;;;;7.10;100.00;100686.72;6294885;22;20022;-67
2023/03/17 04:48:01;;;;;;;7.28;3.33;;;;;;;7.10;100.00;100686.72;6294790;22;20015;-68
2023/03/17 04:50:27;;;;;;;7.20;3.72;;;;;;;7.12;100.00;100687.47;6295185;22;20022;-67
2023/03/17 04:52:52;;;;;;;9.02;4.10;;;;;;;7.02;100.00;100699.50;6295331;22;20520;-67
2023/03/17 04:55:18;;;;;;;6.45;3.75;;;;;;;7.03;100.00;100690.63;6294598;22;20023;-68
2023/03/17 04:57:43;;;;;;;6.25;3.90;;;;;;;6.93;100.00;100687.59;6294806;22;20038;-68
2023/03/17 05:00:11;;;;;;;11.40;4.53;;;;;;;6.84;100.00;100687.19;6294582;22;20892;-67
2023/03/17 05:02:37;;;;;;;7.20;3.92;;;;;;;6.90;100.00;100681.56;6294663;22;20019;-68
2023/03/17 05:05:04;;;;;;;7.22;4.05;;;;;;;6.78;100.00;100685.72;6294880;22;20077;-68
2023/03/17 05:07:30;;;;;;;7.95;4.18;;;;;;;6.86;100.00;100688.81;6267415;22;20104;-68
2023/03/17 05:09:55;;;;;;;6.22;4.55;;;;;;;6.77;100.00;100691.91;6295944;22;20023;-68
2023/03/17 05:12:21;;;;;;;10.65;4.72;;;;;;;6.66;100.00;100688.97;6267835;22;20315;-67
2023/03/17 05:14:47;;;;;;;8.77;4.57;;;;;;;6.89;100.00;100695.78;6295862;22;20513;-69
2023/03/17 05:17:12;;;;;;;7.80;3.78;;;;;;;7.07;100.00;100696.59;6267583;22;20023;-66
2023/03/17 05:19:38;;;;;;;6.05;3.90;;;;;;;7.23;100.00;100692.25;6294851;22;20011;-68
2023/03/17 05:22:03;;;;;;;9.25;3.83;;;;;;;7.20;100.00;100695.91;6294529;22;20015;-68
2023/03/17 05:24:29;;;;;;;9.68;3.55;;;;;;;7.33;100.00;100685.53;6294708;22;20012;-68
2023/03/17 05:26:55;;;;;;;8.55;4.13;;;;;;;7.46;100.00;100691.88;6266851;22;20104;-67
2023/03/17 05:29:20;;;;;;;6.85;3.92;;;;;;;7.38;100.00;100685.25;6294603;22;20090;-67
2023/03/17 05:31:46;;;;;;;6.10;3.53;;;;;;;7.40;100.00;100684.25;6295269;22;20038;-68
2023/03/17 05:34:11;;;;;;;13.50;4.05;;;;;;;7.45;100.00;100679.56;6295363;22;20742;-68
2023/03/17 05:36:37;;;;;;;5.78;3.70;;;;;;;7.37;100.00;100683.56;6266769;22;20410;-68
2023/03/17 05:39:02;;;;;;;7.05;3.75;;;;;;;7.20;100.00;100674.69;6289564;22;20092;-67
2023/03/17 05:41:28;;;;;;;6.32;3.40;;;;;;;7.39;100.00;100671.09;6322906;22;20042;-67
2023/03/17 05:43:54;;;;;;;7.28;3.80;;;;;;;7.33;100.00;100668.72;6323426;22;20366;-68
2023/03/17 05:46:21;;;;;;;8.27;3.47;;;;;;;7.47;100.00;100667.06;6322496;22;20019;-66
2023/03/17 05:48:46;;;;;;;10.98;3.85;;;;;;;7.59;100.00;100675.34;6322087;22;20014;-67
2023/03/17 05:51:12;;;;;;;8.30;3.95;;;;;;;7.53;100.00;100673.88;6322562;22;20429;-68
2023/03/17 05:53:37;;;;;;;12.05;4.07;;;;;;;7.58;100.00;100679.78;6292705;22;20007;-68
2023/03/17 05:56:03;;;;;;;6.88;4.15;;;;;;;7.33;100.00;100682.00;6321152;22;20011;-67
2023/03/17 05:58:28;;;;;;;7.80;3.65;;;;;;;7.31;100.00;100682.09;6321565;22;20089;-67
2023/03/17 06:00:54;;;;;;;8.15;4.15;;;;;;;7.24;100.00;100680.72;6319749;22;20018;-67
2023/03/17 06:03:21;;;;;;;9.93;4.05;;;;;;;7.09;100.00;100682.34;6322639;22;20437;-67
2023/03/17 06:05:47;;;;;;;6.57;4.53;;;;;;;6.91;100.00;100681.50;6321357;22;20255;-68
2023/03/17 06:08:12;;;;;;;10.40;4.18;;;;;;;7.15;100.00;100675.88;6320097;22;20007;-66
2023/03/17 06:10:38;;;;;;;7.55;4.28;;;;;;;7.42;100.00;100679.72;6321357;22;20019;-67
2023/03/17 06:13:03;;;;;;;11.90;4.05;;;;;;;7.15;100.00;100674.06;6322839;22;20528;-68
2023/03/17 06:15:29;;;;;;;7.88;4.28;;;;;;;6.96;100.00;100665.34;6268927;22;20007;-67
2023/03/17 06:17:55;;;;;;;7.32;3.85;;;;;;;7.13;100.00;100664.47;6322573;22;20015;-66
2023/03/17 06:20:22;;;;;;;17.95;5.32;;;;;;;7.40;100.00;100665.69;6322510;22;20014;-68
2023/03/17 06:22:48;;;;;;;6.18;3.85;;;;;;;7.43;100.00;100667.31;6293094;22;20019;-67
2023/03/17 06:25:14;;;;;;;11.57;3.90;;;;;;;7.39;100.00;100671.09;6322718;22;20025;-68
2023/03/17 06:27:39;;;;;;;7.13;3.55;;;;;;;7.73;100.00;100680.72;6322339;22;20105;-68
2023/03/17 06:30:07;;;;;;;7.63;4.18;;;;;;;7.73;100.00;100676.31;6295068;22;20110;-68
2023/03/17 06:32:32;;;;;;;6.93;3.42;;;;;;;7.56;100.00;100684.28;6322309;22;20118;-67
2023/03/17 06:34:58;;;;;;;5.53;3.38;;;;;;;7.56;100.00;100675.47;6322919;22;20441;-68
2023/03/17 06:37:24;;;;;;;5.43;3.80;;;;;;;7.55;100.00;100671.97;6322955;22;20187;-70
2023/03/17 06:39:49;;;;;;;8.07;4.43;;;;;;;7.48;100.00;100666.16;6322710;22;20162;-68
2023/03/17 06:42:15;;;;;;;8.02;3.67;;;;;;;7.72;100.00;100663.94;6323372;22;20014;-69
2023/03/17 06:44:40;;;;;;;4.22;3.42;;;;;;;7.92;100.00;100665.50;6323335;22;20017;-68
2023/03/17 06:47:06;;;;;;;6.10;3.42;;;;;;;7.75;100.00;100678.88;6323530;22;20405;-68
2023/03/17 06:49:31;;;;;;;5.40;3.83;;;;;;;7.77;100.00;100676.97;6322723;22;20110;-69
2023/03/17 06:51:57;;;;;;;7.38;3.83;;;;;;;7.72;100.00;100677.22;6323556;22;20088;-69
2023/03/17 06:54:24;;;;;;;6.10;3.50;;;;;;;7.96;100.00;100672.38;6295436;22;20101;-69
2023/03/17 06:56:50;;;;;;;8.75;5.03;;;;;;;8.08;100.00;100667.31;6323067;22;20010;-69
2023/03/17 06:59:16;;;;;;;8.00;3.75;;;;;;;8.37;100.00;100669.22;6295937;22;20042;-71
2023/03/17 07:01:42;;;;;;;10.30;4.45;;;;;;;8.66;98.00;100666.69;6323382;22;20025;-69
2023/03/17 07:04:08;;;;;;;5.82;4.28;;;;;;;8.57;98.81;100665.41;6322791;22;20011;-69
2023/03/17 07:06:34;;;;;;;5.90;3.72;;;;;;;9.00;96.44;100666.44;6322952;22;20026;-68
2023/03/17 07:09:00;;;;;;;12.80;4.05;;;;;;;8.93;96.13;100661.53;6323050;22;20015;-68
2023/03/17 07:11:25;;;;;;;5.93;3.60;;;;;;;9.21;94.64;100660.75;6322429;22;20708;-68
2023/03/17 07:13:51;;;;;;;8.82;4.13;;;;;;;9.29;93.95;100659.34;6322020;22;20026;-69
2023/03/17 07:16:19;;;;;;;6.80;3.72;;;;;;;9.72;90.52;100651.34;6323247;22;20012;-73
2023/03/17 07:18:45;;;;;;;9.90;3.60;;;;;;;9.91;89.91;100647.53;6325202;22;20159;-69
2023/03/17 07:21:11;;;;;;;6.43;3.30;;;;;;;10.30;89.19;100646.81;6325308;22;20539;-68
2023/03/17 07:23:36;;;;;;;5.50;3.35;;;;;;;10.51;86.83;100639.22;6324927;22;20015;-69
2023/03/17 07:26:02;;;;;;;7.25;3.88;;;;;;;10.59;85.78;100628.88;6325285;22;20014;-70
2023/03/17 07:28:28;;;;;;;8.48;3.33;;;;;;;10.47;87.37;100643.88;6324897;22;20432;-68
2023/03/17 07:30:56;;;;;;;8.48;3.47;;;;;;;10.76;85.32;100655.28;6325056;22;20089;-68
2023/03/17 07:33:23;;;;;;;4.90;3.03;;;;;;;11.19;84.39;100656.81;6324336;22;20019;-68
2023/03/17 07:35:49;;;;;;;7.35;3.65;;;;;;;11.32;83.92;100661.22;6322731;22;20011;-68
2023/03/17 07:38:15;;;;;;;6.15;4.10;;;;;;;11.30;81.86;100663.16;6325007;22;20026;-68
2023/03/17 07:40:42;;;;;;;6.47;3.80;;;;;;;11.20;81.64;100664.75;6324535;22;20015;-69
2023/03/17 07:43:09;;;;;;;9.15;4.63;;;;;;;11.55;79.97;100659.63;6324137;22;20953;-69
2023/03/17 07:45:34;;;;;;;7.47;4.03;;;;;;;11.78;78.09;100666.00;6325139;22;20010;-68
2023/03/17 07:48:02;;;;;;;6.57;3.78;;;;;;;11.73;79.12;100667.28;6323910;22;20014;-68
2023/03/17 07:50:27;;;;;;;7.03;3.78;;;;;;;11.67;79.00;100671.25;6324717;22;20018;-69
2023/03/17 07:52:53;;;;;;;6.35;3.38;;;;;;;11.91;78.03;100666.00;6324894;22;20018;-68
2023/03/17 07:55:18;;;;;;;5.90;4.07;;;;;;;11.63;78.85;100667.94;6324822;22;20019;-67
2023/03/17 07:57:44;;;;;;;6.10;3.97;;;;;;;11.77;78.55;100668.78;6324616;22;20015;-69
2023/03/17 08:00:12;;;;;;;7.78;3.78;;;;;;;12.12;77.53;100661.78;6324896;22;20018;-68
2023/03/17 08:02:38;;;;;;;8.48;3.60;;;;;;;11.90;78.16;100659.81;6324730;22;20014;-68
2023/03/17 08:05:06;;;;;;;5.60;3.42;;;;;;;12.12;76.50;100645.75;6324574;22;20025;-69
2023/03/17 08:07:32;;;;;;;5.85;3.25;;;;;;;12.15;77.05;100650.03;6323837;22;20088;-68
2023/03/17 08:09:58;;;;;;;6.57;3.55;;;;;;;12.30;76.20;100650.69;6323716;22;20010;-67
2023/03/17 08:12:24;;;;;;;5.28;3.47;;;;;;;12.02;76.70;100649.19;6324547;22;20017;-67
2023/03/17 08:14:50;;;;;;;6.63;3.35;;;;;;;12.19;76.48;100648.81;6324028;22;20019;-67
2023/03/17 08:17:16;;;;;;;4.75;3.80;;;;;;;12.61;76.07;100646.63;6323875;22;20010;-70
2023/03/17 08:19:43;;;;;;;5.88;3.58;;;;;;;12.54;77.39;100640.84;6323576;22;20139;-68
2023/03/17 08:22:09;;;;;;;5.10;3.40;;;;;;;12.49;75.49;100637.66;6323458;22;20040;-67
2023/03/17 08:24:35;;;;;;;6.78;4.05;;;;;;;12.59;75.63;100633.34;6323906;22;20153;-66
2023/03/17 08:27:01;;;;;;;9.15;4.03;;;;;;;12.24;75.97;100633.28;6324083;22;20011;-69
2023/03/17 08:29:27;;;;;;;4.97;3.53;;;;;;;12.51;75.46;100633.09;6324039;22;20014;-70
2023/03/17 08:31:53;;;;;;;7.13;3.47;;;;;;;12.61;76.40;100636.78;6322545;22;20023;-69
2023/03/17 08:34:19;;;;;;;5.30;3.80;;;;;;;12.45;75.60;100638.91;6324250;22;20011;-68
2023/03/17 08:36:44;;;;;;;4.75;3.20;;;;;;;12.55;75.91;100637.25;6323475;22;20015;-67
2023/03/17 08:39:09;;;;;;;5.78;3.00;;;;;;;12.24;76.49;100640.47;6322850;22;20791;-69
2023/03/17 08:41:36;;;;;;;3.95;2.92;;;;;;;12.55;76.53;100636.34;6295498;22;20108;-68
2023/03/17 08:44:02;;;;;;;7.13;3.33;;;;;;;12.61;75.25;100649.28;6324149;22;20010;-68
2023/03/17 08:46:30;;;;;;;7.05;3.50;;;;;;;12.55;75.99;100653.28;6323926;22;20046;-68
2023/03/17 08:48:57;;;;;;;5.80;3.50;;;;;;;12.83;75.83;100649.38;6324187;22;20517;-67
2023/03/17 08:51:25;;;;;;;5.85;3.80;;;;;;;12.66;74.33;100641.78;6324518;22;20067;-68
2023/03/17 08:53:52;;;;;;;9.85;4.47;;;;;;;13.08;75.98;100643.00;6295667;22;20042;-69
2023/03/17 08:56:19;;;;;;;8.07;3.70;;;;;;;12.94;75.62;100644.03;6322847;22;20010;-69
2023/03/17 08:58:45;;;;;;;7.85;3.28;;;;;;;12.70;75.48;100641.44;6318297;22;20011;-68
2023/03/17 09:01:11;;;;;;;5.28;3.38;;;;;;;12.89;76.54;100640.00;6323383;22;20014;-69
2023/03/17 09:03:38;;;;;;;7.47;3.30;;;;;;;12.76;74.07;100645.47;6322273;22;20658;-69
2023/03/17 09:06:05;;;;;;;10.23;3.78;;;;;;;12.95;75.16;100637.75;6323503;22;20577;-68
2023/03/17 09:08:33;;;;;;;7.40;3.50;;;;;;;13.06;75.66;100634.25;6323467;22;20015;-69
2023/03/17 09:10:59;;;;;;;4.55;3.22;;;;;;;13.45;74.65;100626.75;6295615;22;20034;-68
2023/03/17 09:13:25;;;;;;;5.75;3.45;;;;;;;13.61;73.72;100629.09;6322615;22;20018;-69
2023/03/17 09:15:52;;;;;;;7.45;3.40;;;;;;;13.76;72.38;100621.66;6324057;22;20015;-67
2023/03/17 09:18:18;;;;;;;6.10;3.40;;;;;;;13.67;72.05;100632.13;6323587;22;20014;-68
2023/03/17 09:20:43;;;;;;;6.25;3.33;;;;;;;13.89;71.69;100630.41;6322242;22;20019;-68
2023/03/17 09:23:09;;;;;;;6.72;3.75;;;;;;;13.52;72.42;100630.69;6323600;22;20011;-68
2023/03/17 09:25:37;;;;;;;6.22;3.58;;;;;;;13.78;71.54;100615.19;6323000;22;20007;-67
2023/03/17 09:28:04;;;;;;;9.93;3.55;;;;;;;14.13;70.41;100625.72;6322391;22;20015;-68
2023/03/17 09:30:31;;;;;;;7.70;3.47;;;;;;;14.25;71.80;100637.28;6294717;22;20019;-67
2023/03/17 09:32:56;;;;;;;6.32;3.50;;;;;;;13.75;69.46;100642.22;6323120;22;20018;-69
2023/03/17 09:35:22;;;;;;;6.45;4.00;;;;;;;13.94;69.84;100641.59;6322542;22;20088;-69
2023/03/17 09:37:48;;;;;;;4.70;3.45;;;;;;;14.13;70.27;100654.38;6322185;22;20524;-69
2023/03/17 09:40:19;;;;;;;5.68;3.38;;;;;;;13.99;70.24;100658.19;6322983;22;20118;-68
2023/03/17 09:43:07;;;;;;;5.43;3.25;;;;;;;14.04;73.42;100655.97;6323414;22;20019;-67
2023/03/17 09:45:37;;;;;;;6.55;3.65;;;;;;;14.32;71.55;100659.09;6323698;22;20513;-68
2023/03/17 09:48:35;;;;;;;8.20;3.72;;;;;;;14.60;71.94;100655.84;6323845;22;20489;-68
2023/03/17 09:51:13;;;;;;;5.50;3.78;;;;;;;14.28;70.66;100649.59;6323010;22;20015;-68
2023/03/17 09:53:49;;;;;;;5.40;3.15;;;;;;;14.49;70.98;100643.34;6322931;22;20063;-68
2023/03/17 09:56:16;;;;;;;5.70;3.75;;;;;;;14.92;71.36;100645.13;6322982;22;20022;-69
2023/03/17 09:59:06;;;;;;;4.85;3.38;;;;;;;14.72;69.31;100643.28;6322806;22;20007;-69
2023/03/17 10:01:31;;;;;;;5.88;3.70;;;;;;;15.36;68.29;100645.84;6321656;22;20063;-68
2023/03/17 10:03:57;;;;;;;9.15;4.00;;;;;;;15.99;69.98;100643.84;6322269;22;20018;-70
2023/03/17 10:06:25;;;;;;;8.80;4.07;;;;;;;15.55;65.41;100639.69;6322364;22;20076;-68
2023/03/17 10:08:59;;;;;;;6.10;3.80;;;;;;;15.60;65.44;100633.91;6294860;22;20029;-65
2023/03/17 10:11:38;;;;;;;8.00;3.42;;;;;;;15.64;66.28;100628.16;6323337;22;20014;-68
2023/03/17 10:14:41;;;;;;;4.85;3.45;;;;;;;15.79;65.15;100642.09;6322887;22;20026;-68
2023/03/17 10:17:20;;;;;;;17.45;5.93;;;;;;;15.54;66.09;100652.28;6323321;22;20015;-68
2023/03/17 10:20:17;;;;;;;13.95;4.72;;;;;;;15.45;66.20;100647.69;6323239;22;20023;-68
2023/03/17 10:23:15;;;;;;;34.85;6.72;;;;;;;15.55;66.43;100639.69;6310627;22;20638;-69
2023/03/17 10:25:41;;;;;;;5.07;3.53;;;;;;;15.49;66.70;100656.34;6296070;22;20021;-69
2023/03/17 10:28:28;;;;;;;10.52;4.38;;;;;;;15.74;64.29;100636.28;6322907;22;20037;-69
2023/03/17 10:31:00;;;;;;;9.10;4.45;;;;;;;15.69;63.38;100633.13;6294779;22;20429;-67
2023/03/17 10:33:26;;;;;;;5.93;3.35;;;;;;;15.82;63.69;100627.53;6322916;22;20046;-67
2023/03/17 10:35:51;;;;;;;9.77;4.45;;;;;;;15.43;65.56;100638.09;6295566;22;20015;-69
2023/03/17 10:38:21;;;;;;;9.10;4.85;;;;;;;15.63;65.81;100639.91;6321983;22;20015;-68
2023/03/17 10:40:56;;;;;;;14.55;4.75;;;;;;;15.78;65.48;100630.50;6321619;22;20347;-67
2023/03/17 10:43:26;;;;;;;53.00;8.50;;;;;;;15.62;64.47;100632.81;6322770;22;20023;-67
2023/03/17 10:46:01;;;;;;;12.82;4.85;;;;;;;16.16;65.33;100628.03;6323064;22;20022;-68
2023/03/17 10:48:28;;;;;;;71.68;11.05;;;;;;;16.25;64.43;100638.81;6322943;22;20018;-69
2023/03/17 10:50:57;;;;;;;12.65;4.65;;;;;;;16.33;65.05;100640.84;6292991;22;20681;-69
2023/03/17 10:53:27;;;;;;;9.77;4.30;;;;;;;16.26;62.77;100637.81;6292939;22;20026;-68
2023/03/17 10:56:05;;;;;;;5.30;3.60;;;;;;;16.50;66.23;100647.34;6320711;22;20019;-68
2023/03/17 10:58:42;;;;;;;11.38;4.35;;;;;;;16.51;63.89;100636.44;6320818;22;20026;-68
2023/03/17 11:01:34;;;;;;;6.78;4.05;;;;;;;16.35;62.24;100640.69;6292750;22;20516;-70
2023/03/17 11:04:02;;;;;;;;;;;;;;;16.28;64.15;100627.78;6320891;22;20829;-68
2023/03/17 11:06:41;;;;;;;9.20;3.80;;;;;;;16.30;63.61;100623.09;6319249;22;19957;-69
2023/03/17 11:09:17;;;;;;;6.40;4.30;;;;;;;16.43;64.44;100616.63;6320588;22;20068;-68
2023/03/17 11:11:45;;;;;;;7.53;3.83;;;;;;;16.32;62.18;100625.69;6322277;22;20032;-67
2023/03/17 11:14:12;;;;;;;9.02;4.05;;;;;;;16.47;62.96;100634.19;6322169;22;20086;-69
2023/03/17 11:16:59;;;;;;;11.02;4.28;;;;;;;16.85;64.52;100629.81;6321894;22;20121;-68
2023/03/17 11:19:56;;;;;;;8.13;3.65;;;;;;;16.60;64.41;100637.44;6318863;22;20109;-69
2023/03/17 11:22:39;;;;;;;10.35;4.80;;;;;;;16.50;62.82;100631.22;6311535;22;20027;-69
2023/03/17 11:25:18;;;;;;;6.38;3.70;;;;;;;16.97;61.29;100616.06;6322009;22;20015;-69
2023/03/17 11:28:03;;;;;;;8.77;5.28;;;;;;;16.97;61.94;100615.22;6321258;22;20018;-69
2023/03/17 11:30:34;;;;;;;7.95;4.05;;;;;;;16.55;62.35;100631.63;6322313;22;20027;-69